METAR AND TAF INFORMATION
METAR FOR YSSY
ADDS - METARS form results

(1655 UTC 23 February 2019)
Data provider http://aviationweather.gov/metar/data/
 
METAR text: YSSY 231630Z 15017KT 9999 VCSH FEW036 20/12 Q1024 NOSIG
Conditions at: YSSY (SYDNEY INTL AIRP, AU) observed 1630 UTC 23 February 2019
Temperature: 20.0°C (68°F)
Dewpoint: 12.0°C (54°F) [RH = 60%]
Pressure (altimeter): 30.24 inches Hg (1024.0 mb)
Winds: from the SSE (150 degrees) at 20 MPH (17 knots; 8.7 m/s)
Visibility: 6 or more miles (10+ km)
Ceiling: at least 12,000 feet AGL
Clouds: few clouds at 3600 feet AGL
Weather: VCSH  (showers in vicinity)

METAR text: YSSY 231622Z 15019G29KT 9999 VCSH SCT036 20/12 Q1024
Conditions at: YSSY (SYDNEY INTL AIRP, AU) observed 1622 UTC 23 February 2019
Temperature: 20.0°C (68°F)
Dewpoint: 12.0°C (54°F) [RH = 60%]
Pressure (altimeter): 30.24 inches Hg (1024.0 mb)
Winds: from the SSE (150 degrees) at 22 MPH (19 knots; 9.8 m/s)
gusting to 33 MPH (29 knots; 14.9 m/s)
Visibility: 6 or more miles (10+ km)
Ceiling: at least 12,000 feet AGL
Clouds: scattered clouds at 3600 feet AGL
Weather: VCSH  (showers in vicinity)

METAR text: YSSY 231600Z 16017KT 9999 VCSH FEW020 BKN036 20/12 Q1024
Conditions at: YSSY (SYDNEY INTL AIRP, AU) observed 1600 UTC 23 February 2019
Temperature: 20.0°C (68°F)
Dewpoint: 12.0°C (54°F) [RH = 60%]
Pressure (altimeter): 30.24 inches Hg (1024.0 mb)
Winds: from the SSE (160 degrees) at 20 MPH (17 knots; 8.7 m/s)
Visibility: 6 or more miles (10+ km)
Ceiling: 3600 feet AGL
Clouds: few clouds at 2000 feet AGL
broken clouds at 3600 feet AGL
Weather: VCSH  (showers in vicinity)

Forecast for: AMD
Text: TAF AMD YSSY 231108Z 2312/2418 18015KT 9999 -SHRA BKN025
Forecast period: 1200 UTC 23 February 2019 to 0000 UTC 24 February 2019
Forecast type: FROM: standard forecast or significant change
Winds: from the S (180 degrees) at 17 MPH (15 knots; 7.7 m/s)
Visibility: 6 or more miles 10+ km)
Ceiling: 2500 feet AGL
Clouds: broken clouds at 2500 feet AGL
Weather: -SHRA  (light rain showers)
Text: FM240000 15018KT 9999 -SHRA BKN035
Forecast period: 0000 to 1000 UTC 24 February 2019
Forecast type: FROM: standard forecast or significant change
Winds: from the SSE (150 degrees) at 21 MPH (18 knots; 9.3 m/s)
Visibility: 6 or more miles 10+ km)
Ceiling: 3500 feet AGL
Clouds: broken clouds at 3500 feet AGL
Weather: -SHRA  (light rain showers)
Text: FM241000 13012KT 9999 -SHRA BKN030
Forecast period: 1000 to 1800 UTC 24 February 2019
Forecast type: FROM: standard forecast or significant change
Winds: from the SE (130 degrees) at 14 MPH (12 knots; 6.2 m/s)
Visibility: 6 or more miles 10+ km)
Ceiling: 3000 feet AGL
Clouds: broken clouds at 3000 feet AGL
Weather: -SHRA  (light rain showers)

 AIRPORT MAP

 RUNWAY INFORMATION
Runway 07 Runway length 8300 ft Runway width 148 ft
Runway elevation 16 ft Runway displaced threshold 0 ft Runway heading 74
Runway 25 Runway length 8300 ft Runway width 148 ft
Runway elevation 20 ft Runway displaced threshold 324 ft Runway heading 254
Runway 16L Runway length 7999 ft Runway width 148 ft
Runway elevation 16 ft Runway displaced threshold 758 ft Runway heading 168
Runway 34R Runway length 7999 ft Runway width 148 ft
Runway elevation 13 ft Runway displaced threshold 125 ft Runway heading 348
Runway 16R Runway length 12999 ft Runway width 148 ft
Runway elevation 8 ft Runway displaced threshold 279 ft Runway heading 168
Runway 34L Runway length 12999 ft Runway width 148 ft
Runway elevation 14 ft Runway displaced threshold 0 ft Runway heading 348

 AIRPORT FREQUENCIES
Type APP Name APP Frequency 135.1 MHZ
Type ATIS Name ATIS Frequency 126.25 MHZ
Type CLD Name CLNC DEL Frequency 133.8 MHZ
Type DEP Name DEP Frequency 123 MHZ
Type GND Name GND Frequency 121.7 MHZ
Type OPS Name RAAF AIR O Frequency 1123.5 MHZ
Type TWR Name TWR Frequency 120.5 MHZ

 AIRPORT NEAR NAVIGATION AIDS
Type NDB Name Glenfield Frequency 428 KHZ
Type VOR-DME Name Sydney Frequency 112100 KHZ



Copyright © 2011 - 2018 BirgenAir Virtual Airlines. All rights reserved. Developed by Goktug Unver